Main page
METAR-TAF:

METAR-TAF

Airports :

Prince Nayef bin Abdulaziz Regional Airport

Buraidah, Saudi Arabia

latitude: 26-18N, longitude: 043-46E, elevation: 648 m

Current weather observation

The report was made 1 hour and 15 minutes ago, at 13:00 UTC
Wind 10 kt from the East/Northeast
Temperature 21°C
Humidity 64%
Pressure 1021 hPa
Visibility 10 km or more
no clouds below 1500 m and no cumulonimbus

METAR: OEGS 181300Z 06010KT CAVOK 21/14 Q1021

Time: 17:15 (14:15 UTC)

Forecast

The report was made 3 hours and 15 minutes ago, at 11:00 UTC
Forecast valid from 18 at 12 UTC to 19 at 18 UTC
Wind 8 kt from the East/Northeast with gusts up to 18 kt
Visibility: 8000 m
Few clouds at a height of 3000 ft
Temporary
from 18 at 12 UTC to 18 at 20 UTC
Visibility: 5000 m
widespread dust, Blowing dust

TAF: OEGS 181100Z 1812/1918 070008G18KT 8000 FEW030 TEMPO 1812/1820 5000 DU BLDU

Weather observations and forecasts of more than 4000 airports (METAR and TAF reports).

The available stations are represented by yellow and red dots on the map.

Hover mouse over dot to see the name of the station.

Then click to see weather observations and forecasts.

To change the map : click on the green buttons with a black cross to zoom in, on the green button with a dash to zoom out, or on the green arrows for adjacent maps.


METAR-TAF: